Time;durP1;ratioP1;P1;durP2;ratioP2;P2;SDS_P1;SDS_P2;PMS_P1;PMS_P2;Temp;Humidity;BMP_temperature;BMP_pressure;BME280_temperature;BME280_humidity;BME280_pressure;Samples;Min_cycle;Max_cycle;Signal;HPM_P1;HPM_P2
2024/02/01 00:01:25;;;;;;;22.38;17.02;;;7.30;99.90;;;;;;5074196;28;20195;-73
2024/02/01 00:03:52;;;;;;;22.90;15.93;;;7.30;99.90;;;;;;5076638;28;20265;-72
2024/02/01 00:06:20;;;;;;;19.98;15.30;;;7.30;99.90;;;;;;5072107;28;20238;-76
2024/02/01 00:08:47;;;;;;;21.98;17.05;;;7.30;99.90;;;;;;5079696;28;20573;-74
2024/02/01 00:11:15;;;;;;;23.15;16.90;;;7.20;99.90;;;;;;5078743;28;20203;-74
2024/02/01 00:13:42;;;;;;;24.45;17.23;;;7.20;99.90;;;;;;5081483;28;20238;-73
2024/02/01 00:16:09;;;;;;;21.20;16.80;;;7.20;99.90;;;;;;5077680;28;20206;-74
2024/02/01 00:18:36;;;;;;;19.60;17.17;;;7.10;99.90;;;;;;5086832;28;20194;-74
2024/02/01 00:21:03;;;;;;;23.13;19.17;;;7.10;99.90;;;;;;5084268;28;20251;-74
2024/02/01 00:23:31;;;;;;;25.48;20.33;;;7.10;99.90;;;;;;5082044;28;20230;-73
2024/02/01 00:25:58;;;;;;;23.23;18.60;;;7.20;99.90;;;;;;5078061;28;20658;-73
2024/02/01 00:28:25;;;;;;;25.95;18.75;;;7.20;99.90;;;;;;5077414;28;20230;-73
2024/02/01 00:30:52;;;;;;;20.80;17.80;;;7.20;99.90;;;;;;5084925;28;20195;-73
2024/02/01 00:33:19;;;;;;;24.65;19.95;;;7.10;99.90;;;;;;5082807;28;20215;-73
2024/02/01 00:35:46;;;;;;;27.90;19.52;;;7.10;99.90;;;;;;5078805;28;20253;-74
2024/02/01 00:38:13;;;;;;;32.65;22.15;;;7.10;99.90;;;;;;5079623;28;20196;-74
2024/02/01 00:40:41;;;;;;;21.85;17.70;;;7.10;99.90;;;;;;5079246;28;20559;-73
2024/02/01 00:43:08;;;;;;;22.77;18.95;;;7.10;99.90;;;;;;5075799;28;20259;-73
2024/02/01 00:45:35;;;;;;;25.98;19.70;;;7.10;99.90;;;;;;5076259;28;20252;-74
2024/02/01 00:48:02;;;;;;;24.30;19.08;;;7.20;99.90;;;;;;5077466;28;20257;-73
2024/02/01 00:50:29;;;;;;;28.98;20.10;;;7.10;99.90;;;;;;5089125;28;20230;-73
2024/02/01 00:52:56;;;;;;;23.00;19.00;;;7.10;99.90;;;;;;5075146;28;20250;-73
2024/02/01 00:55:23;;;;;;;22.15;18.50;;;7.10;99.90;;;;;;5081404;28;20196;-72
2024/02/01 00:57:51;;;;;;;25.35;20.20;;;7.20;99.90;;;;;;5085182;28;20321;-74
2024/02/01 01:00:19;;;;;;;24.63;18.40;;;7.20;99.90;;;;;;5082733;28;20195;-72
2024/02/01 01:02:46;;;;;;;25.67;20.92;;;7.20;99.90;;;;;;5075294;28;20286;-73
2024/02/01 01:05:13;;;;;;;25.67;20.00;;;7.20;99.90;;;;;;5081093;28;20260;-72
2024/02/01 01:07:40;;;;;;;27.83;22.65;;;7.20;99.90;;;;;;5088258;28;20203;-73
2024/02/01 01:10:08;;;;;;;24.95;21.02;;;7.20;99.90;;;;;;5083193;28;20238;-72
2024/02/01 01:12:35;;;;;;;26.48;19.95;;;7.20;99.90;;;;;;5075560;28;20223;-72
2024/02/01 01:15:03;;;;;;;23.15;20.30;;;7.20;99.90;;;;;;5078452;28;20253;-72
2024/02/01 01:17:30;;;;;;;30.17;21.75;;;7.20;99.90;;;;;;5082516;28;20639;-73
2024/02/01 01:20:02;;;;;;;27.20;19.35;;;7.20;99.90;;;;;;5085443;28;20238;-75
2024/02/01 01:22:29;;;;;;;34.65;22.65;;;7.10;99.90;;;;;;5084057;28;20248;-74
2024/02/01 01:24:59;;;;;;;28.50;21.65;;;7.20;99.90;;;;;;5090329;28;20586;-73
2024/02/01 01:27:26;;;;;;;33.60;22.48;;;7.20;99.90;;;;;;5078384;28;20658;-73
2024/02/01 01:29:53;;;;;;;26.67;21.83;;;7.20;99.90;;;;;;5077670;28;20684;-72
2024/02/01 01:32:21;;;;;;;31.33;23.88;;;7.20;99.90;;;;;;5082087;28;20215;-73
2024/02/01 01:34:49;;;;;;;35.67;22.60;;;7.20;99.90;;;;;;5077792;28;20708;-73
2024/02/01 01:37:16;;;;;;;31.83;23.45;;;7.20;99.90;;;;;;5080879;28;20375;-74
2024/02/01 01:39:43;;;;;;;32.03;22.52;;;7.20;99.90;;;;;;5080611;28;20238;-75
2024/02/01 01:42:10;;;;;;;30.10;23.67;;;7.20;99.90;;;;;;5083311;28;20215;-74
2024/02/01 01:44:37;;;;;;;32.17;22.70;;;7.20;99.90;;;;;;5082387;28;20260;-75
2024/02/01 01:47:04;;;;;;;34.75;23.58;;;7.20;99.90;;;;;;5083031;28;20273;-74
2024/02/01 01:49:33;;;;;;;33.92;24.13;;;7.20;99.90;;;;;;5074482;28;20207;-76
2024/02/01 01:52:00;;;;;;;31.50;21.92;;;7.30;99.90;;;;;;5074654;28;20686;-74
2024/02/01 01:54:27;;;;;;;27.02;19.55;;;7.30;99.90;;;;;;5074740;28;20317;-74
2024/02/01 01:56:54;;;;;;;25.30;16.98;;;7.30;99.90;;;;;;5073240;28;20254;-75
2024/02/01 01:59:22;;;;;;;30.63;21.95;;;7.40;99.90;;;;;;5080351;28;20202;-74
2024/02/01 02:01:52;;;;;;;25.58;19.50;;;7.40;99.90;;;;;;5075512;28;20286;-73
2024/02/01 02:04:21;;;;;;;27.40;20.42;;;7.40;99.90;;;;;;5080515;28;20223;-74
2024/02/01 02:06:55;;;;;;;30.92;20.38;;;7.40;99.90;;;;;;5077826;28;20238;-73
2024/02/01 02:09:22;;;;;;;26.63;21.65;;;7.40;99.90;;;;;;5072209;28;20214;-73
2024/02/01 02:11:49;;;;;;;28.92;20.25;;;7.40;99.90;;;;;;5074877;28;20207;-73
2024/02/01 02:14:18;;;;;;;28.98;21.63;;;7.50;99.90;;;;;;5074867;28;20207;-74
2024/02/01 02:16:45;;;;;;;29.15;20.75;;;7.50;99.90;;;;;;5073269;28;20249;-73
2024/02/01 02:19:12;;;;;;;30.23;20.77;;;7.50;99.90;;;;;;5075895;28;20654;-74
2024/02/01 02:21:46;;;;;;;27.73;21.50;;;7.60;99.90;;;;;;5082825;28;20661;-74
2024/02/01 02:24:14;;;;;;;30.17;21.15;;;7.60;99.90;;;;;;5080353;28;20230;-74
2024/02/01 02:26:41;;;;;;;25.35;19.33;;;7.60;99.90;;;;;;5073092;28;20336;-74
2024/02/01 02:29:08;;;;;;;30.73;22.38;;;7.60;99.90;;;;;;5075392;28;20292;-75
2024/02/01 02:31:35;;;;;;;28.55;21.92;;;7.60;99.90;;;;;;5081508;28;20222;-75
2024/02/01 02:34:03;;;;;;;29.00;22.15;;;7.70;99.90;;;;;;5073093;28;20605;-74
2024/02/01 02:36:30;;;;;;;21.00;16.42;;;7.70;99.90;;;;;;5081197;28;20280;-74
2024/02/01 02:38:58;;;;;;;25.55;20.00;;;7.80;99.90;;;;;;5080245;28;20658;-74
2024/02/01 02:41:25;;;;;;;25.88;20.17;;;7.80;99.90;;;;;;5073200;28;20195;-74
2024/02/01 02:43:53;;;;;;;24.27;18.92;;;7.80;99.90;;;;;;5073160;28;20259;-74
2024/02/01 02:46:21;;;;;;;26.15;19.85;;;7.90;99.90;;;;;;5072634;28;20227;-75
2024/02/01 02:48:48;;;;;;;19.20;16.45;;;7.80;99.90;;;;;;5073188;28;20211;-73
2024/02/01 02:51:16;;;;;;;24.42;17.48;;;7.90;99.90;;;;;;5074103;28;20238;-73
2024/02/01 02:53:43;;;;;;;26.48;17.23;;;8.00;99.90;;;;;;5081020;28;20230;-73
2024/02/01 02:56:11;;;;;;;18.98;15.90;;;8.00;99.90;;;;;;5076103;28;20252;-73
2024/02/01 02:58:39;;;;;;;21.10;15.63;;;8.10;99.90;;;;;;5083192;28;20619;-73
2024/02/01 03:01:08;;;;;;;22.80;16.23;;;8.10;99.90;;;;;;5083755;28;20199;-73
2024/02/01 03:03:40;;;;;;;19.83;15.30;;;8.10;99.90;;;;;;5078418;28;20288;-73
2024/02/01 03:06:07;;;;;;;22.10;16.35;;;8.10;99.90;;;;;;5072450;28;20221;-72
2024/02/01 03:08:34;;;;;;;19.33;14.32;;;8.20;99.90;;;;;;5076185;28;20208;-72
2024/02/01 03:11:01;;;;;;;22.45;14.27;;;8.20;99.90;;;;;;5078804;28;20615;-73
2024/02/01 03:13:30;;;;;;;18.75;14.32;;;8.30;99.90;;;;;;5090099;28;20254;-73
2024/02/01 03:15:57;;;;;;;25.38;14.40;;;8.30;99.90;;;;;;5079983;28;20222;-72
2024/02/01 03:18:24;;;;;;;21.65;13.85;;;8.30;99.90;;;;;;5078087;28;20207;-73
2024/02/01 03:20:55;;;;;;;19.67;14.75;;;8.40;99.90;;;;;;5075104;28;20674;-74
2024/02/01 03:23:23;;;;;;;25.23;13.02;;;8.40;99.90;;;;;;5084374;28;20232;-72
2024/02/01 03:25:50;;;;;;;23.95;14.73;;;8.40;99.90;;;;;;5078993;28;20207;-73
2024/02/01 03:28:17;;;;;;;22.98;12.13;;;8.40;99.90;;;;;;5088186;28;20199;-73
2024/02/01 03:30:47;;;;;;;24.27;14.18;;;8.40;99.90;;;;;;5088230;28;20673;-73
2024/02/01 03:33:14;;;;;;;20.50;13.05;;;8.40;99.90;;;;;;5088462;28;20220;-73
2024/02/01 03:35:42;;;;;;;28.58;11.93;;;8.40;99.90;;;;;;5077881;28;20637;-74
2024/02/01 03:38:15;;;;;;;18.23;12.85;;;8.40;99.90;;;;;;5088593;28;20660;-74
2024/02/01 03:40:42;;;;;;;17.77;11.70;;;8.40;99.90;;;;;;5081794;28;20631;-75
2024/02/01 03:43:11;;;;;;;21.63;13.00;;;8.40;99.90;;;;;;5072782;28;20297;-74
2024/02/01 03:45:38;;;;;;;23.08;11.05;;;8.50;99.90;;;;;;5076067;28;20203;-74
2024/02/01 03:48:08;;;;;;;17.88;9.43;;;8.40;99.90;;;;;;5085798;28;20203;-74
2024/02/01 03:50:38;;;;;;;14.52;9.43;;;8.50;99.90;;;;;;5090505;28;20577;-75
2024/02/01 03:53:10;;;;;;;21.17;8.93;;;8.40;99.90;;;;;;5086878;28;20288;-75
2024/02/01 03:55:37;;;;;;;20.50;9.50;;;8.50;99.90;;;;;;5080904;28;20272;-73
2024/02/01 03:58:05;;;;;;;16.98;8.05;;;8.50;99.90;;;;;;5083354;28;20228;-73
2024/02/01 04:00:32;;;;;;;13.32;7.07;;;8.40;99.90;;;;;;5077713;28;20215;-73
2024/02/01 04:03:03;;;;;;;30.35;8.20;;;8.30;99.90;;;;;;5090332;28;20222;-74
2024/02/01 04:05:36;;;;;;;28.15;8.00;;;8.30;99.90;;;;;;5082459;28;20231;-72
2024/02/01 04:08:07;;;;;;;17.77;7.45;;;8.20;99.90;;;;;;5072460;28;20229;-73
2024/02/01 04:10:34;;;;;;;11.63;6.28;;;8.10;99.90;;;;;;5071835;28;20661;-74
2024/02/01 04:13:01;;;;;;;22.38;6.72;;;8.10;99.90;;;;;;5079693;28;20681;-74
2024/02/01 04:15:28;;;;;;;21.17;6.65;;;8.00;99.90;;;;;;5083378;28;20230;-73
2024/02/01 04:17:55;;;;;;;24.13;6.03;;;8.00;99.90;;;;;;5093655;28;20297;-74
2024/02/01 04:20:22;;;;;;;24.55;7.63;;;7.90;99.90;;;;;;5084781;28;20293;-74
2024/02/01 04:22:53;;;;;;;21.52;7.40;;;7.90;99.90;;;;;;5083154;28;20242;-74
2024/02/01 04:25:21;;;;;;;15.27;6.55;;;7.80;99.90;;;;;;5085859;28;20214;-74
2024/02/01 04:27:49;;;;;;;23.63;7.00;;;7.80;99.90;;;;;;5080967;28;20348;-73
2024/02/01 04:30:18;;;;;;;21.02;5.63;;;7.70;99.90;;;;;;5085878;28;20205;-74
2024/02/01 04:32:46;;;;;;;19.77;6.65;;;7.70;99.90;;;;;;5083405;28;20670;-75
2024/02/01 04:35:13;;;;;;;16.48;6.55;;;7.60;99.90;;;;;;5087571;28;20576;-75
2024/02/01 04:37:40;;;;;;;19.88;6.07;;;7.60;99.90;;;;;;5081580;28;20670;-75
2024/02/01 04:40:10;;;;;;;19.33;5.55;;;7.50;99.90;;;;;;5088221;28;20565;-73
2024/02/01 04:42:37;;;;;;;22.70;5.70;;;7.50;99.90;;;;;;5084284;28;20295;-74
2024/02/01 04:45:05;;;;;;;29.92;8.15;;;7.40;99.90;;;;;;5096961;28;20218;-72
2024/02/01 04:47:33;;;;;;;21.58;6.20;;;7.40;99.90;;;;;;5085770;28;20298;-73
2024/02/01 04:50:00;;;;;;;20.17;6.75;;;7.40;99.90;;;;;;5081148;28;20202;-75
2024/02/01 04:52:27;;;;;;;24.10;4.93;;;7.30;99.90;;;;;;5086812;28;20223;-74
2024/02/01 04:54:54;;;;;;;22.38;6.93;;;7.30;99.90;;;;;;5091873;28;20227;-75
2024/02/01 04:57:22;;;;;;;33.83;9.32;;;7.30;99.90;;;;;;5088918;28;20243;-74
2024/02/01 04:59:49;;;;;;;18.30;4.72;;;7.20;99.90;;;;;;5089005;28;20615;-74
2024/02/01 05:02:17;;;;;;;30.08;6.18;;;7.20;99.90;;;;;;5083120;28;20272;-73
2024/02/01 05:04:44;;;;;;;13.88;4.45;;;7.20;99.90;;;;;;5092641;28;20264;-74
2024/02/01 05:07:11;;;;;;;12.98;5.07;;;7.20;99.90;;;;;;5084555;28;20615;-74
2024/02/01 05:09:39;;;;;;;24.20;5.70;;;7.10;99.90;;;;;;5083969;28;20256;-73
2024/02/01 05:12:07;;;;;;;15.38;5.97;;;7.10;99.90;;;;;;5083488;28;20251;-73
2024/02/01 05:14:37;;;;;;;17.90;5.18;;;7.10;99.90;;;;;;5075271;28;20529;-75
2024/02/01 05:17:04;;;;;;;25.75;6.70;;;7.10;99.90;;;;;;5082911;28;20283;-76
2024/02/01 05:19:31;;;;;;;26.92;6.35;;;7.10;99.90;;;;;;5081873;28;20272;-76
2024/02/01 05:21:58;;;;;;;24.40;5.53;;;7.20;99.90;;;;;;5086976;28;20255;-74
2024/02/01 05:24:26;;;;;;;24.85;7.15;;;7.20;99.90;;;;;;5081009;28;20215;-73
2024/02/01 05:26:53;;;;;;;26.85;5.13;;;7.20;99.90;;;;;;5089310;28;20238;-74
2024/02/01 05:29:21;;;;;;;32.28;7.88;;;7.30;99.90;;;;;;5078531;28;20277;-74
2024/02/01 05:31:50;;;;;;;27.27;7.50;;;7.30;99.90;;;;;;5076252;28;20203;-72
2024/02/01 05:34:19;;;;;;;26.38;6.80;;;7.30;99.90;;;;;;5087645;28;20252;-72
2024/02/01 05:36:46;;;;;;;33.90;7.72;;;7.30;99.90;;;;;;5083828;28;20726;-74
2024/02/01 05:39:25;;;;;;;22.98;6.72;;;7.20;99.90;;;;;;5083660;28;20289;-74
2024/02/01 05:41:53;;;;;;;24.88;6.07;;;7.10;99.90;;;;;;5080466;28;20301;-72
2024/02/01 05:44:21;;;;;;;30.70;8.70;;;7.10;99.90;;;;;;5085914;28;20638;-74
2024/02/01 05:46:53;;;;;;;23.05;6.45;;;7.00;99.90;;;;;;5080299;28;20210;-73
2024/02/01 05:49:20;;;;;;;22.25;5.05;;;7.00;99.90;;;;;;5089966;28;20255;-74
2024/02/01 05:51:49;;;;;;;18.75;6.70;;;7.00;99.90;;;;;;5085306;28;20207;-74
2024/02/01 05:54:19;;;;;;;20.52;5.93;;;6.90;99.90;;;;;;5086828;28;20613;-73
2024/02/01 05:56:47;;;;;;;31.02;6.45;;;6.90;99.90;;;;;;5085130;28;20283;-72
2024/02/01 05:59:15;;;;;;;23.98;6.32;;;6.80;99.90;;;;;;5081202;28;20256;-73
2024/02/01 06:01:43;;;;;;;27.83;5.28;;;6.80;99.90;;;;;;5101029;28;20261;-74
2024/02/01 06:04:12;;;;;;;23.48;6.38;;;6.80;99.90;;;;;;5086498;28;20264;-75
2024/02/01 06:06:40;;;;;;;24.38;5.60;;;6.80;99.90;;;;;;5083541;28;20238;-74
2024/02/01 06:09:10;;;;;;;34.53;6.25;;;6.80;99.90;;;;;;5078326;28;20199;-74
2024/02/01 06:11:38;;;;;;;22.08;5.88;;;6.70;99.90;;;;;;5086324;28;20213;-73
2024/02/01 06:14:05;;;;;;;28.45;6.35;;;6.70;99.90;;;;;;5089057;28;20242;-72
2024/02/01 06:16:32;;;;;;;14.88;6.03;;;6.60;99.90;;;;;;5074672;28;20207;-73
2024/02/01 06:19:01;;;;;;;29.88;4.93;;;6.60;99.90;;;;;;5087522;28;20653;-73
2024/02/01 06:21:31;;;;;;;15.98;5.18;;;6.60;99.90;;;;;;5089676;28;20230;-76
2024/02/01 06:23:58;;;;;;;24.20;5.45;;;6.60;99.90;;;;;;5084628;28;20264;-76
2024/02/01 06:26:28;;;;;;;18.08;6.40;;;6.50;99.90;;;;;;5086012;28;20199;-72
2024/02/01 06:28:59;;;;;;;22.45;7.25;;;6.50;99.90;;;;;;5084817;28;20202;-74
2024/02/01 06:31:26;;;;;;;20.35;5.50;;;6.50;99.90;;;;;;5099684;28;20252;-74
2024/02/01 06:33:54;;;;;;;29.48;5.38;;;6.50;99.90;;;;;;5082834;28;20227;-75
2024/02/01 06:36:23;;;;;;;32.92;5.80;;;6.50;99.90;;;;;;5082557;28;20203;-73
2024/02/01 06:39:09;;;;;;;24.77;6.30;;;6.50;99.90;;;;;;5099787;28;20289;-73
2024/02/01 06:41:46;;;;;;;17.30;5.75;;;6.50;99.90;;;;;;5096637;28;20203;-73
2024/02/01 06:44:25;;;;;;;19.90;5.90;;;6.40;99.90;;;;;;5081681;28;20594;-75
2024/02/01 06:50:03;;;;;;;27.85;6.47;;;6.30;99.90;;;;;;5070721;28;20198;-75
2024/02/01 06:52:39;;;;;;;36.25;6.13;;;6.30;99.90;;;;;;5088496;28;20226;-77
2024/02/01 06:58:16;;;;;;;25.25;7.03;;;6.30;99.90;;;;;;5045228;28;20204;-77
2024/02/01 07:00:53;;;;;;;26.10;5.13;;;6.30;99.90;;;;;;5023540;28;20251;-76
2024/02/01 07:03:44;;;;;;;26.73;8.55;;;6.20;99.90;;;;;;5065001;28;20210;-78
2024/02/01 07:06:25;;;;;;;24.67;5.35;;;6.20;99.90;;;;;;5077050;28;20273;-76
2024/02/01 07:08:56;;;;;;;30.30;6.40;;;6.10;99.90;;;;;;5072477;28;20245;-76
2024/02/01 07:11:28;;;;;;;24.20;6.68;;;6.10;99.90;;;;;;5075745;28;20203;-76
2024/02/01 07:14:08;;;;;;;17.58;5.55;;;6.10;99.90;;;;;;5074314;28;20612;-75
2024/02/01 07:16:35;;;;;;;25.15;4.88;;;6.10;99.90;;;;;;5071570;28;20584;-76
2024/02/01 07:19:23;;;;;;;25.13;5.43;;;6.10;99.90;;;;;;5076889;28;20219;-76
2024/02/01 07:22:05;;;;;;;19.52;4.25;;;6.10;99.90;;;;;;5080676;28;20216;-79
2024/02/01 07:24:59;;;;;;;28.00;5.43;;;6.10;99.90;;;;;;5079170;28;20227;-75
2024/02/01 07:57:55;;;;;;;24.98;6.75;;;6.50;99.90;;;;;;5088763;28;20241;-79
2024/02/01 08:00:33;;;;;;;31.15;7.10;;;6.50;99.90;;;;;;5082406;28;20199;-77
2024/02/01 08:03:22;;;;;;;23.85;5.20;;;6.60;99.90;;;;;;5081713;28;20218;-77
2024/02/01 08:08:35;;;;;;;24.73;5.10;;;6.80;99.90;;;;;;5074621;28;20594;-77
2024/02/01 08:11:02;;;;;;;32.88;5.70;;;7.10;99.90;;;;;;5080481;28;20309;-75
2024/02/01 08:13:29;;;;;;;27.38;7.28;;;7.40;99.90;;;;;;5097342;28;20226;-75
2024/02/01 08:15:58;;;;;;;31.65;6.05;;;7.90;99.90;;;;;;5073908;28;20223;-76
2024/02/01 08:18:34;;;;;;;30.10;7.40;;;8.20;99.90;;;;;;5085361;28;20215;-78
2024/02/01 08:21:03;;;;;;;27.77;5.50;;;8.60;99.90;;;;;;5075889;28;20215;-77
2024/02/01 08:23:30;;;;;;;22.65;4.47;;;9.20;99.90;;;;;;5085502;28;20689;-78
2024/02/01 08:26:02;;;;;;;25.45;6.60;;;9.50;99.90;;;;;;5080053;28;20837;-77
2024/02/01 08:28:32;;;;;;;30.83;9.02;;;9.70;99.90;;;;;;5074886;28;20282;-77
2024/02/01 08:31:02;;;;;;;24.60;6.45;;;10.30;99.90;;;;;;5079458;28;20559;-77
2024/02/01 08:33:29;;;;;;;25.50;6.00;;;10.90;99.90;;;;;;5081507;28;20298;-78
2024/02/01 08:35:57;;;;;;;33.35;5.50;;;11.00;99.90;;;;;;5079789;28;20267;-75
2024/02/01 08:38:24;;;;;;;19.55;5.63;;;11.00;99.90;;;;;;5086608;28;20235;-76
2024/02/01 08:40:51;;;;;;;24.92;8.02;;;11.30;99.90;;;;;;5083370;28;20680;-75
2024/02/01 08:43:18;;;;;;;29.42;7.35;;;11.30;99.90;;;;;;5084869;28;20352;-78
2024/02/01 08:45:45;;;;;;;24.75;6.70;;;11.70;99.90;;;;;;5080107;28;20706;-77
2024/02/01 08:48:14;;;;;;;25.58;6.28;;;11.90;99.90;;;;;;5082474;28;20212;-78
2024/02/01 08:50:45;;;;;;;27.27;7.90;;;12.30;99.90;;;;;;5085985;28;20215;-75
2024/02/01 08:53:13;;;;;;;20.58;7.18;;;12.60;99.90;;;;;;5088316;28;20221;-77
2024/02/01 08:55:41;;;;;;;27.67;7.43;;;13.00;99.90;;;;;;5089245;28;20203;-79
2024/02/01 08:58:11;;;;;;;22.73;8.23;;;13.10;99.90;;;;;;5086683;28;20257;-77
2024/02/01 09:00:39;;;;;;;23.05;6.45;;;13.30;99.90;;;;;;5087674;28;20207;-78
2024/02/01 09:03:10;;;;;;;20.00;6.68;;;13.60;99.90;;;;;;5082063;28;20292;-76
2024/02/01 09:05:41;;;;;;;25.80;4.83;;;13.80;99.90;;;;;;5091617;28;20217;-78
2024/02/01 09:08:08;;;;;;;26.40;7.30;;;13.50;99.90;;;;;;5077370;28;20855;-80
2024/02/01 09:10:35;;;;;;;23.30;5.82;;;13.30;99.90;;;;;;5075634;28;20207;-76
2024/02/01 09:13:03;;;;;;;21.02;6.22;;;13.10;99.90;;;;;;5086538;28;20287;-76
2024/02/01 09:15:31;;;;;;;30.30;7.38;;;13.30;99.90;;;;;;5083945;28;20615;-76
2024/02/01 09:17:58;;;;;;;20.60;5.57;;;12.80;99.90;;;;;;5075763;28;20317;-75
2024/02/01 09:20:25;;;;;;;32.80;7.35;;;12.70;99.90;;;;;;5080990;28;20225;-77
2024/02/01 09:22:55;;;;;;;15.05;5.30;;;12.70;99.90;;;;;;5089301;28;20662;-76
2024/02/01 09:25:24;;;;;;;18.80;5.90;;;12.50;99.90;;;;;;5084419;28;20219;-76
2024/02/01 09:27:53;;;;;;;36.50;8.88;;;12.90;99.90;;;;;;5091634;28;20230;-77
2024/02/01 09:30:22;;;;;;;27.15;7.03;;;12.90;99.90;;;;;;5080317;28;20208;-77
2024/02/01 09:32:51;;;;;;;21.42;5.85;;;13.00;99.90;;;;;;5097714;28;20214;-79
2024/02/01 09:35:19;;;;;;;23.25;5.50;;;13.30;99.90;;;;;;5087135;28;20202;-76
2024/02/01 09:37:51;;;;;;;20.08;6.45;;;13.10;99.90;;;;;;5084654;28;20612;-79
2024/02/01 09:40:20;;;;;;;22.20;6.47;;;12.60;99.90;;;;;;5094628;28;20205;-78
2024/02/01 09:42:48;;;;;;;42.35;6.90;;;12.90;99.90;;;;;;5084850;28;20230;-75
2024/02/01 09:45:18;;;;;;;16.48;5.85;;;13.00;99.90;;;;;;5078572;28;20569;-78
2024/02/01 09:47:46;;;;;;;28.48;8.45;;;12.60;99.90;;;;;;5076784;28;20213;-77
2024/02/01 09:50:15;;;;;;;20.05;6.97;;;12.20;99.90;;;;;;5088685;28;20199;-77
2024/02/01 09:52:44;;;;;;;30.58;6.65;;;12.00;99.90;;;;;;5081146;28;20269;-76
2024/02/01 09:55:16;;;;;;;26.08;7.40;;;11.60;99.90;;;;;;5083556;28;20195;-75
2024/02/01 09:57:47;;;;;;;21.30;6.38;;;11.70;99.90;;;;;;5085103;28;20216;-77
2024/02/01 10:00:23;;;;;;;18.85;6.47;;;12.20;99.90;;;;;;5079026;28;20218;-79
2024/02/01 10:02:52;;;;;;;26.77;7.43;;;12.70;99.90;;;;;;5079372;28;20223;-81
2024/02/01 10:05:20;;;;;;;23.48;6.75;;;12.90;99.90;;;;;;5090177;28;20302;-78
2024/02/01 10:07:47;;;;;;;36.45;6.57;;;12.80;99.90;;;;;;5084939;28;20289;-78
2024/02/01 10:10:15;;;;;;;21.85;6.05;;;12.20;99.90;;;;;;5093797;28;20220;-76
2024/02/01 10:12:43;;;;;;;38.67;9.13;;;12.30;99.90;;;;;;5099060;28;20810;-77
2024/02/01 10:15:12;;;;;;;24.85;6.70;;;12.40;99.90;;;;;;5080230;28;20666;-77
2024/02/01 10:17:49;;;;;;;18.48;5.55;;;12.60;99.90;;;;;;5079005;28;20203;-77
2024/02/01 10:20:38;;;;;;;31.90;7.40;;;12.60;99.90;;;;;;5080400;28;20207;-79
2024/02/01 10:23:07;;;;;;;38.63;7.25;;;12.80;99.90;;;;;;5079581;28;20660;-79
2024/02/01 10:25:38;;;;;;;35.90;6.03;;;13.10;99.90;;;;;;5077645;28;20220;-75
2024/02/01 10:28:07;;;;;;;24.67;7.20;;;12.90;99.90;;;;;;5081781;28;20210;-76
2024/02/01 10:30:39;;;;;;;31.35;9.43;;;12.60;99.90;;;;;;5081756;28;20205;-76
2024/02/01 10:33:07;;;;;;;16.70;6.28;;;12.80;99.90;;;;;;5080180;28;20225;-74
2024/02/01 10:35:35;;;;;;;24.92;7.53;;;13.10;99.90;;;;;;5087950;28;20248;-80
2024/02/01 10:38:11;;;;;;;20.63;6.85;;;13.10;99.90;;;;;;5085908;28;20221;-75
2024/02/01 10:40:53;;;;;;;25.20;9.15;;;13.20;99.90;;;;;;5081631;28;20664;-75
2024/02/01 10:43:22;;;;;;;26.45;7.85;;;13.40;99.90;;;;;;5085368;28;20329;-76
2024/02/01 10:46:05;;;;;;;33.80;7.10;;;13.20;99.90;;;;;;5079921;28;20634;-74
2024/02/01 10:48:34;;;;;;;25.05;7.32;;;13.30;99.90;;;;;;5081943;28;20202;-76
2024/02/01 10:51:09;;;;;;;34.88;8.02;;;13.20;99.90;;;;;;5081519;28;20620;-78
2024/02/01 10:53:41;;;;;;;30.77;6.70;;;12.90;99.90;;;;;;5083732;28;20230;-74
2024/02/01 10:56:13;;;;;;;28.75;7.22;;;12.40;99.90;;;;;;5073114;28;20200;-78
2024/02/01 10:58:43;;;;;;;24.17;8.98;;;12.30;99.90;;;;;;5079729;28;20211;-74
2024/02/01 11:01:13;;;;;;;28.30;6.93;;;12.20;99.90;;;;;;5087295;28;20256;-76
2024/02/01 11:03:44;;;;;;;26.58;7.20;;;11.90;99.90;;;;;;5086574;28;20230;-78
2024/02/01 11:06:11;;;;;;;26.25;7.82;;;11.70;99.90;;;;;;5079171;28;20219;-75
2024/02/01 11:08:38;;;;;;;23.33;7.45;;;11.60;99.90;;;;;;5076911;28;20233;-75
2024/02/01 11:11:16;;;;;;;28.55;7.95;;;11.40;99.90;;;;;;5079259;28;20290;-76
2024/02/01 11:13:43;;;;;;;19.85;5.18;;;11.30;99.90;;;;;;5074904;28;20234;-77
2024/02/01 11:16:12;;;;;;;19.40;5.72;;;11.20;99.90;;;;;;5088017;28;20199;-78
2024/02/01 11:18:50;;;;;;;27.80;8.13;;;11.00;99.90;;;;;;5081656;28;20207;-78
2024/02/01 11:21:28;;;;;;;25.65;6.53;;;11.00;99.90;;;;;;5073774;28;20297;-77
2024/02/01 11:24:08;;;;;;;38.17;8.32;;;11.10;99.90;;;;;;5074554;28;20716;-76
2024/02/01 11:26:41;;;;;;;36.20;7.72;;;11.00;99.90;;;;;;5074808;28;20226;-73
2024/02/01 11:29:10;;;;;;;23.67;7.28;;;11.10;99.90;;;;;;5083563;28;20302;-75
2024/02/01 11:31:44;;;;;;;20.95;6.88;;;11.00;99.90;;;;;;5092966;28;20211;-74
2024/02/01 11:34:13;;;;;;;28.52;8.18;;;10.90;99.90;;;;;;5073223;28;20202;-77
2024/02/01 11:36:43;;;;;;;36.78;8.77;;;10.90;99.90;;;;;;5078643;28;20663;-75
2024/02/01 11:39:11;;;;;;;21.17;5.60;;;11.00;99.90;;;;;;5080470;28;20207;-78
2024/02/01 11:41:46;;;;;;;19.13;6.80;;;10.90;99.90;;;;;;5081109;28;20203;-75
2024/02/01 11:44:13;;;;;;;22.08;6.10;;;10.80;99.90;;;;;;5072802;28;20298;-75
2024/02/01 11:46:45;;;;;;;21.63;8.77;;;10.50;99.90;;;;;;5088599;28;20227;-74
2024/02/01 11:49:16;;;;;;;21.75;6.07;;;10.10;99.90;;;;;;5079671;28;20215;-76
2024/02/01 11:51:45;;;;;;;26.90;6.70;;;9.90;99.90;;;;;;5083863;28;20207;-77
2024/02/01 11:54:12;;;;;;;25.92;6.00;;;9.90;99.90;;;;;;5080646;28;20196;-77
2024/02/01 11:56:43;;;;;;;17.45;4.68;;;9.90;99.90;;;;;;5080083;28;20202;-75
2024/02/01 11:59:10;;;;;;;25.98;5.85;;;9.80;99.90;;;;;;5072562;28;20639;-75
2024/02/01 12:01:37;;;;;;;26.38;6.18;;;9.70;99.90;;;;;;5083829;28;20682;-77
2024/02/01 12:04:07;;;;;;;22.20;6.70;;;9.80;99.90;;;;;;5087596;28;20199;-75
2024/02/01 12:06:34;;;;;;;20.95;6.38;;;9.80;99.90;;;;;;5090963;28;20280;-78
2024/02/01 12:09:02;;;;;;;29.23;5.88;;;9.90;99.90;;;;;;5084001;28;20611;-77
2024/02/01 12:11:34;;;;;;;29.02;7.38;;;9.80;99.90;;;;;;5087487;28;20537;-77
2024/02/01 12:14:02;;;;;;;14.68;4.60;;;9.70;99.90;;;;;;5092069;28;20226;-78
2024/02/01 12:16:31;;;;;;;22.17;5.97;;;9.60;99.90;;;;;;5092449;28;20203;-74
2024/02/01 12:18:59;;;;;;;18.33;5.72;;;9.70;99.90;;;;;;5080220;28;20294;-77
2024/02/01 12:21:28;;;;;;;29.73;8.63;;;9.70;99.90;;;;;;5080830;28;20273;-75
2024/02/01 12:23:58;;;;;;;28.10;6.43;;;9.80;99.90;;;;;;5080888;28;20681;-74
2024/02/01 12:26:26;;;;;;;23.77;6.28;;;9.90;99.90;;;;;;5080064;28;20282;-77
2024/02/01 12:28:54;;;;;;;19.40;5.45;;;9.70;99.90;;;;;;5083879;28;20203;-75
2024/02/01 12:31:21;;;;;;;21.30;6.30;;;9.70;99.90;;;;;;5075796;28;20282;-78
2024/02/01 12:33:49;;;;;;;25.17;6.40;;;9.70;99.90;;;;;;5089061;28;20305;-76
2024/02/01 12:36:16;;;;;;;23.17;5.10;;;9.70;99.90;;;;;;5082203;28;20200;-77
2024/02/01 12:38:45;;;;;;;23.55;5.78;;;9.80;99.90;;;;;;5081666;28;20272;-75
2024/02/01 12:41:14;;;;;;;18.85;5.47;;;9.80;99.90;;;;;;5084101;28;20206;-75
2024/02/01 12:43:42;;;;;;;17.38;4.68;;;9.90;99.90;;;;;;5089856;28;20225;-75
2024/02/01 12:46:11;;;;;;;23.40;7.28;;;10.10;99.90;;;;;;5086731;28;20313;-76
2024/02/01 12:48:38;;;;;;;14.43;5.15;;;10.20;99.90;;;;;;5083867;28;20692;-74
2024/02/01 12:51:06;;;;;;;19.40;5.05;;;10.10;99.90;;;;;;5080203;28;20578;-78
2024/02/01 12:53:34;;;;;;;17.88;5.40;;;10.10;99.90;;;;;;5079843;28;20770;-76
2024/02/01 12:56:03;;;;;;;18.23;5.65;;;10.10;99.90;;;;;;5081269;28;20290;-76
2024/02/01 12:58:30;;;;;;;15.85;6.00;;;10.20;99.90;;;;;;5078936;28;20211;-75
2024/02/01 13:00:57;;;;;;;17.70;4.55;;;10.30;99.90;;;;;;5090369;28;20235;-73
2024/02/01 13:03:24;;;;;;;22.92;5.80;;;10.30;99.90;;;;;;5090259;28;20273;-74
2024/02/01 13:05:51;;;;;;;19.27;4.95;;;10.20;99.90;;;;;;5084910;28;20195;-77
2024/02/01 13:08:18;;;;;;;19.20;5.38;;;10.20;99.90;;;;;;5082553;28;20207;-77
2024/02/01 13:10:45;;;;;;;18.85;5.38;;;10.30;99.90;;;;;;5076552;28;20727;-76
2024/02/01 13:13:13;;;;;;;21.83;5.25;;;10.20;99.90;;;;;;5083313;28;20605;-76
2024/02/01 13:15:46;;;;;;;20.90;5.85;;;10.20;99.90;;;;;;5075043;28;20264;-74
2024/02/01 13:18:13;;;;;;;30.40;6.35;;;10.00;99.90;;;;;;5080317;28;20571;-76
2024/02/01 13:20:40;;;;;;;20.52;4.90;;;9.90;99.90;;;;;;5080411;28;20574;-74
2024/02/01 13:23:10;;;;;;;16.10;5.45;;;10.00;99.90;;;;;;5079321;28;20288;-76
2024/02/01 13:25:38;;;;;;;20.77;5.03;;;10.00;99.90;;;;;;5083234;28;21376;-77
2024/02/01 13:28:08;;;;;;;28.92;5.38;;;10.10;99.90;;;;;;5082069;28;20195;-75
2024/02/01 13:30:39;;;;;;;14.73;4.40;;;10.10;99.90;;;;;;5083374;28;20576;-77